Time;durP1;ratioP1;P1;durP2;ratioP2;P2;SDS_P1;SDS_P2;PMS_P1;PMS_P2;Temp;Humidity;BMP_temperature;BMP_pressure;BME280_temperature;BME280_humidity;BME280_pressure;Samples;Min_cycle;Max_cycle;Signal;HPM_P1;HPM_P2
2023/01/26 00:01:52;;;;;;;6.63;6.07;;;16.20;60.50;;;;;;5047567;28;20131;-16
2023/01/26 00:04:18;;;;;;;7.13;6.53;;;16.20;60.70;;;;;;5049403;28;20036;-16
2023/01/26 00:06:43;;;;;;;6.97;6.35;;;16.30;60.60;;;;;;5045477;28;20414;-16
2023/01/26 00:09:13;;;;;;;6.43;5.93;;;16.30;60.60;;;;;;5050184;28;20071;-17
2023/01/26 00:11:38;;;;;;;6.85;6.25;;;16.30;60.40;;;;;;5048385;28;20045;-16
2023/01/26 00:14:04;;;;;;;6.18;5.78;;;16.30;60.60;;;;;;5047769;28;20041;-16
2023/01/26 00:16:30;;;;;;;6.65;6.15;;;16.30;60.50;;;;;;5064316;28;20041;-17
2023/01/26 00:18:56;;;;;;;6.65;6.15;;;16.20;60.50;;;;;;5049882;28;20040;-16
2023/01/26 00:21:22;;;;;;;6.47;5.95;;;16.20;60.50;;;;;;5054306;28;20050;-19
2023/01/26 00:23:48;;;;;;;6.53;6.03;;;16.20;60.50;;;;;;5059490;28;20064;-16
2023/01/26 00:26:15;;;;;;;6.43;5.95;;;16.20;60.60;;;;;;5056187;28;20111;-15
2023/01/26 00:28:41;;;;;;;6.00;5.60;;;16.20;60.50;;;;;;5045837;28;20055;-17
2023/01/26 00:31:12;;;;;;;6.13;5.63;;;16.20;61.20;;;;;;5051668;28;20036;-17
2023/01/26 00:33:37;;;;;;;5.97;5.43;;;16.20;60.40;;;;;;5045046;28;20053;-16
2023/01/26 00:36:03;;;;;;;6.20;5.70;;;16.20;60.50;;;;;;5045693;28;20123;-17
2023/01/26 00:38:29;;;;;;;5.78;5.38;;;16.30;60.10;;;;;;5047216;28;20044;-17
2023/01/26 00:40:54;;;;;;;6.03;5.43;;;16.30;60.00;;;;;;5069433;28;20098;-16
2023/01/26 00:43:20;;;;;;;5.78;5.28;;;16.20;60.10;;;;;;5064953;28;20037;-15
2023/01/26 00:45:46;;;;;;;6.22;5.72;;;16.20;60.40;;;;;;5065674;28;20071;-16
2023/01/26 00:48:11;;;;;;;6.28;5.78;;;16.30;59.90;;;;;;5059913;28;20120;-15
2023/01/26 00:50:37;;;;;;;6.28;5.78;;;16.20;59.90;;;;;;5055759;28;20049;-16
2023/01/26 00:53:02;;;;;;;5.82;5.43;;;16.20;60.00;;;;;;5058511;28;20381;-16
2023/01/26 00:55:31;;;;;;;5.15;4.85;;;16.30;60.00;;;;;;5042935;28;20049;-17
2023/01/26 00:58:00;;;;;;;5.50;5.10;;;16.30;60.10;;;;;;5049369;28;20041;-18
2023/01/26 01:00:26;;;;;;;5.43;4.90;;;16.30;59.90;;;;;;5045591;28;20044;-16
2023/01/26 01:02:51;;;;;;;5.25;4.85;;;16.30;59.90;;;;;;5047706;28;20124;-16
2023/01/26 01:05:17;;;;;;;5.63;5.22;;;16.20;59.90;;;;;;5055238;28;20122;-17
2023/01/26 01:07:42;;;;;;;5.45;5.05;;;16.20;59.80;;;;;;5045828;28;20256;-15
2023/01/26 01:10:09;;;;;;;5.65;5.25;;;16.20;60.30;;;;;;5048497;28;20083;-17
2023/01/26 01:12:34;;;;;;;5.75;5.20;;;16.10;60.20;;;;;;5047072;28;20103;-17
2023/01/26 01:15:00;;;;;;;5.80;5.40;;;16.10;60.30;;;;;;5056686;28;20052;-16
2023/01/26 01:17:25;;;;;;;5.57;5.18;;;16.00;60.50;;;;;;5050502;28;20047;-16
2023/01/26 01:19:51;;;;;;;5.80;5.40;;;16.10;60.50;;;;;;5045774;28;20033;-16
2023/01/26 01:22:17;;;;;;;5.43;5.10;;;16.00;61.40;;;;;;5048066;28;20048;-16
2023/01/26 01:24:42;;;;;;;5.20;4.80;;;16.00;60.50;;;;;;5056846;28;20045;-16
2023/01/26 01:27:08;;;;;;;5.15;4.85;;;16.10;60.50;;;;;;5046457;28;20045;-16
2023/01/26 01:29:33;;;;;;;5.78;5.30;;;16.10;60.60;;;;;;5046362;28;20098;-17
2023/01/26 01:31:59;;;;;;;4.90;4.60;;;16.10;60.30;;;;;;5046898;28;20044;-16
2023/01/26 01:34:24;;;;;;;4.53;4.22;;;16.00;60.50;;;;;;5056728;28;20124;-12
2023/01/26 01:36:51;;;;;;;5.03;4.72;;;16.00;60.50;;;;;;5045145;28;20071;-18
2023/01/26 01:39:16;;;;;;;4.90;4.57;;;16.00;60.50;;;;;;5046694;28;20041;-16
2023/01/26 01:41:42;;;;;;;4.70;4.40;;;16.00;60.40;;;;;;5047101;28;20035;-16
2023/01/26 01:44:17;;;;;;;5.20;4.90;;;16.00;60.50;;;;;;5042945;28;20581;-16
2023/01/26 01:46:47;;;;;;;5.50;5.10;;;16.00;60.40;;;;;;5063458;28;20044;-23
2023/01/26 01:49:23;;;;;;;5.32;5.00;;;16.00;60.50;;;;;;5059542;28;20044;-14
2023/01/26 01:51:57;;;;;;;4.45;4.25;;;16.00;60.50;;;;;;5047463;28;20061;-13
2023/01/26 01:54:33;;;;;;;4.43;4.13;;;16.00;60.40;;;;;;5045790;28;20052;-13
2023/01/26 01:57:01;;;;;;;4.53;4.25;;;16.00;60.40;;;;;;5040186;28;20052;-12
2023/01/26 01:59:27;;;;;;;4.80;4.43;;;16.10;60.30;;;;;;5049917;28;20515;-16
2023/01/26 02:01:53;;;;;;;4.13;3.88;;;16.10;60.10;;;;;;5056137;28;20048;-15
2023/01/26 02:04:20;;;;;;;4.13;3.92;;;16.00;60.20;;;;;;5029620;28;20048;-13
2023/01/26 02:06:49;;;;;;;4.07;3.88;;;16.00;60.20;;;;;;5052961;28;20114;-12
2023/01/26 02:12:00;;;;;;;4.07;3.88;;;16.00;60.20;;;;;;5051414;28;20158;-13
2023/01/26 02:14:27;;;;;;;3.85;3.65;;;16.20;60.00;;;;;;5045664;28;20052;-12
2023/01/26 02:16:52;;;;;;;3.75;3.45;;;16.10;60.00;;;;;;5058482;28;20051;-12
2023/01/26 02:19:35;;;;;;;4.30;4.10;;;16.10;60.00;;;;;;5051148;28;20124;-13
2023/01/26 02:22:04;;;;;;;3.95;3.65;;;16.10;60.10;;;;;;5052103;28;20070;-12
2023/01/26 02:24:32;;;;;;;3.70;3.50;;;16.00;60.20;;;;;;5049762;28;20048;-13
2023/01/26 02:26:57;;;;;;;4.32;4.03;;;16.00;60.20;;;;;;5073054;28;20040;-13
2023/01/26 02:29:23;;;;;;;4.50;4.10;;;16.00;60.20;;;;;;5055932;28;20700;-13
2023/01/26 02:31:48;;;;;;;4.18;3.88;;;16.00;60.30;;;;;;5054912;28;20049;-13
2023/01/26 02:34:14;;;;;;;4.40;4.10;;;15.90;60.40;;;;;;5049347;28;20507;-12
2023/01/26 02:36:40;;;;;;;3.90;3.70;;;16.00;60.50;;;;;;5045945;28;20065;-12
2023/01/26 02:39:27;;;;;;;4.10;3.90;;;15.90;60.40;;;;;;5041492;28;20059;-12
2023/01/26 02:44:37;;;;;;;3.92;3.72;;;15.90;60.30;;;;;;5061859;28;20465;-13
2023/01/26 02:47:10;;;;;;;4.22;3.92;;;16.00;60.40;;;;;;5042978;28;20045;-12
2023/01/26 02:49:51;;;;;;;3.60;3.40;;;16.00;60.20;;;;;;5049515;28;20419;-12
2023/01/26 02:52:22;;;;;;;3.35;3.15;;;16.00;60.20;;;;;;5056702;28;20072;-13
2023/01/26 02:57:33;;;;;;;3.40;3.20;;;15.90;60.40;;;;;;5052809;28;20529;-12
2023/01/26 02:59:59;;;;;;;3.92;3.63;;;15.90;60.40;;;;;;5048180;28;20043;-12
2023/01/26 03:02:25;;;;;;;3.20;3.00;;;15.80;60.50;;;;;;5042460;28;20131;-13
2023/01/26 03:04:51;;;;;;;3.45;3.25;;;15.80;60.60;;;;;;5047744;28;20056;-13
2023/01/26 03:07:16;;;;;;;3.30;3.10;;;15.90;60.60;;;;;;5066407;28;20060;-13
2023/01/26 03:09:42;;;;;;;3.33;3.13;;;16.00;60.30;;;;;;5053784;28;20045;-12
2023/01/26 03:12:07;;;;;;;3.30;3.10;;;16.00;60.30;;;;;;5052567;28;20503;-12
2023/01/26 03:14:33;;;;;;;3.38;3.17;;;15.90;60.40;;;;;;5063612;28;20051;-12
2023/01/26 03:16:58;;;;;;;3.45;3.25;;;15.90;60.40;;;;;;5048429;28;20048;-12
2023/01/26 03:27:43;;;;;;;3.58;3.25;;;15.90;60.30;;;;;;5062464;28;20431;-13
2023/01/26 03:30:09;;;;;;;3.63;3.42;;;15.90;60.30;;;;;;5053542;28;20068;-13
2023/01/26 03:32:34;;;;;;;3.28;3.08;;;15.90;60.30;;;;;;5047100;28;20045;-13
2023/01/26 03:35:00;;;;;;;3.20;3.00;;;15.90;60.60;;;;;;5046361;28;20045;-13
2023/01/26 03:37:25;;;;;;;3.30;3.10;;;15.80;60.50;;;;;;5047212;28;20579;-12
2023/01/26 03:56:22;;;;;;;;;;;16.00;60.30;;;;;;5054548;28;20068;-13
2023/01/26 03:58:55;;;;;;;3.17;2.97;;;16.00;60.10;;;;;;5056478;28;19982;-12
2023/01/26 04:01:25;;;;;;;3.60;3.40;;;15.90;60.10;;;;;;5062816;28;20029;-13
2023/01/26 04:09:19;;;;;;;3.20;3.00;;;15.80;60.60;;;;;;5067799;28;20423;-12
2023/01/26 04:11:45;;;;;;;3.47;3.28;;;15.90;60.50;;;;;;5066341;28;20053;-12
2023/01/26 04:22:25;;;;;;;2.45;2.35;;;15.80;60.70;;;;;;5049765;28;20537;-15
2023/01/26 04:24:51;;;;;;;2.65;2.55;;;15.80;60.60;;;;;;5046095;28;20037;-13
2023/01/26 04:27:17;;;;;;;2.70;2.50;;;15.80;60.40;;;;;;5051835;28;20407;-13
2023/01/26 04:29:42;;;;;;;2.78;2.58;;;15.80;60.50;;;;;;5065301;28;20033;-13
2023/01/26 04:32:08;;;;;;;3.10;2.90;;;15.80;60.50;;;;;;5057252;28;20056;-13
2023/01/26 04:34:33;;;;;;;2.90;2.80;;;15.70;60.80;;;;;;5058149;28;20044;-12
2023/01/26 04:36:59;;;;;;;2.80;2.70;;;15.70;60.60;;;;;;5047248;28;20041;-13
2023/01/26 04:39:25;;;;;;;2.50;2.40;;;15.80;60.70;;;;;;5048389;28;20036;-12
2023/01/26 04:41:50;;;;;;;2.65;2.55;;;15.80;60.50;;;;;;5046431;28;20057;-13
2023/01/26 04:44:16;;;;;;;2.78;2.67;;;15.80;60.40;;;;;;5052465;28;20045;-12
2023/01/26 04:46:41;;;;;;;2.40;2.30;;;15.80;60.50;;;;;;5067366;28;20051;-12
2023/01/26 04:49:07;;;;;;;2.67;2.50;;;15.80;60.30;;;;;;5066187;28;20032;-12
2023/01/26 04:51:33;;;;;;;2.58;2.47;;;15.80;60.50;;;;;;5060104;28;20028;-13
2023/01/26 04:53:58;;;;;;;2.97;2.78;;;15.80;60.60;;;;;;5053113;28;20106;-14
2023/01/26 04:56:26;;;;;;;2.50;2.40;;;15.90;60.50;;;;;;5058649;28;20530;-12
2023/01/26 04:58:52;;;;;;;2.65;2.55;;;15.90;60.40;;;;;;5057528;28;20037;-13
2023/01/26 05:01:18;;;;;;;2.45;2.35;;;15.80;60.60;;;;;;5050933;28;20091;-13
2023/01/26 05:03:43;;;;;;;2.22;2.13;;;15.80;60.80;;;;;;5047871;28;20319;-13
2023/01/26 05:06:09;;;;;;;2.40;2.20;;;15.70;60.90;;;;;;5047084;28;20045;-14
2023/01/26 05:08:35;;;;;;;2.47;2.38;;;15.70;61.20;;;;;;5056982;28;20400;-13
2023/01/26 05:11:01;;;;;;;1.98;1.88;;;15.80;61.10;;;;;;5058921;28;20519;-12
2023/01/26 05:13:27;;;;;;;2.15;2.05;;;15.80;60.90;;;;;;5052253;28;20044;-12
2023/01/26 05:15:52;;;;;;;2.30;2.20;;;15.80;61.10;;;;;;5042309;28;20049;-13
2023/01/26 05:18:18;;;;;;;2.58;2.40;;;15.80;60.90;;;;;;5053094;28;20051;-12
2023/01/26 05:20:43;;;;;;;2.20;2.10;;;15.90;60.80;;;;;;5040499;28;20412;-13
2023/01/26 05:23:09;;;;;;;2.70;2.50;;;15.80;60.80;;;;;;5056209;28;20062;-13
2023/01/26 05:25:34;;;;;;;1.98;1.88;;;15.90;60.80;;;;;;5049137;28;20488;-12
2023/01/26 05:28:00;;;;;;;2.05;1.95;;;15.80;61.00;;;;;;5047145;28;20072;-12
2023/01/26 05:30:26;;;;;;;1.95;1.85;;;15.80;60.90;;;;;;5062389;28;20028;-13
2023/01/26 05:32:51;;;;;;;2.22;2.13;;;15.90;61.00;;;;;;5063819;28;20049;-12
2023/01/26 05:35:17;;;;;;;2.00;1.90;;;15.80;61.00;;;;;;5051905;28;20045;-12
2023/01/26 05:37:44;;;;;;;1.80;1.70;;;15.70;61.30;;;;;;5044521;28;20098;-13
2023/01/26 05:40:10;;;;;;;1.80;1.70;;;15.70;61.30;;;;;;5044265;28;20412;-12
2023/01/26 05:42:36;;;;;;;2.03;1.92;;;15.80;61.20;;;;;;5046938;28;20040;-13
2023/01/26 05:45:02;;;;;;;1.80;1.70;;;15.80;61.00;;;;;;5045312;28;20041;-13
2023/01/26 05:47:27;;;;;;;1.80;1.70;;;15.80;61.10;;;;;;5046938;28;20364;-13
2023/01/26 05:49:53;;;;;;;1.67;1.58;;;15.80;61.20;;;;;;5041936;28;20028;-12
2023/01/26 05:52:19;;;;;;;1.65;1.55;;;15.80;61.20;;;;;;5042823;28;20095;-10
2023/01/26 05:54:45;;;;;;;1.60;1.50;;;15.80;61.10;;;;;;5044557;28;20045;-11
2023/01/26 05:57:11;;;;;;;1.60;1.50;;;15.80;61.10;;;;;;5046405;28;21449;-11
2023/01/26 05:59:39;;;;;;;1.80;1.70;;;15.70;61.20;;;;;;5054172;28;20072;-14
2023/01/26 06:02:10;;;;;;;1.35;1.35;;;15.80;61.10;;;;;;5077702;28;20041;-15
2023/01/26 06:04:36;;;;;;;1.60;1.50;;;15.80;61.20;;;;;;5065559;28;20047;-14
2023/01/26 06:07:01;;;;;;;1.25;1.25;;;15.70;61.20;;;;;;5073638;28;20528;-14
2023/01/26 06:09:27;;;;;;;1.75;1.65;;;15.80;61.20;;;;;;5062792;28;20044;-15
2023/01/26 06:11:53;;;;;;;1.42;1.40;;;15.80;61.20;;;;;;5061568;28;20063;-11
2023/01/26 06:14:18;;;;;;;2.30;2.10;;;15.60;62.20;;;;;;5053396;28;20037;-11
2023/01/26 06:16:44;;;;;;;2.20;2.10;;;15.50;64.40;;;;;;5060993;28;20151;-11
2023/01/26 06:19:09;;;;;;;2.47;1.98;;;15.40;65.00;;;;;;5052528;28;20033;-12
2023/01/26 06:21:35;;;;;;;2.47;2.38;;;15.50;65.60;;;;;;5047585;28;20127;-12
2023/01/26 06:24:01;;;;;;;1.90;1.80;;;15.70;65.10;;;;;;5056137;28;20404;-12
2023/01/26 06:26:26;;;;;;;2.80;2.60;;;15.80;64.30;;;;;;5047183;28;20040;-12
2023/01/26 06:28:52;;;;;;;2.00;1.90;;;15.70;64.20;;;;;;5052238;28;20131;-12
2023/01/26 06:31:18;;;;;;;3.67;2.25;;;15.70;64.40;;;;;;5041683;28;20531;-11
2023/01/26 06:33:44;;;;;;;2.60;2.40;;;15.70;64.40;;;;;;5043893;28;20098;-11
2023/01/26 06:36:11;;;;;;;2.17;1.85;;;15.70;64.40;;;;;;5048662;28;20110;-15
2023/01/26 06:38:36;;;;;;;2.67;2.47;;;15.60;64.60;;;;;;5051849;28;20196;-12
2023/01/26 06:41:03;;;;;;;4.65;2.42;;;15.70;64.60;;;;;;5047595;28;20448;-15
2023/01/26 06:43:30;;;;;;;3.25;2.38;;;15.80;64.90;;;;;;5040635;28;20045;-13
2023/01/26 06:45:59;;;;;;;3.42;1.92;;;15.90;64.30;;;;;;5043533;28;20641;-13
2023/01/26 06:48:25;;;;;;;3.00;2.80;;;15.80;64.80;;;;;;5051131;28;20500;-10
2023/01/26 06:50:51;;;;;;;2.50;2.30;;;15.70;65.00;;;;;;5044256;28;20113;-11
2023/01/26 06:53:38;;;;;;;2.30;2.10;;;15.70;65.20;;;;;;5042757;28;20504;-11
2023/01/26 06:56:04;;;;;;;3.25;2.20;;;15.60;65.30;;;;;;5061243;28;20066;-12
2023/01/26 06:58:30;;;;;;;2.25;2.15;;;15.60;65.30;;;;;;5054749;28;20060;-13
2023/01/26 07:00:55;;;;;;;1.92;1.83;;;15.70;65.20;;;;;;5037477;28;20523;-13
2023/01/26 07:03:21;;;;;;;2.95;2.03;;;15.60;65.20;;;;;;5039898;28;20057;-11
2023/01/26 07:05:47;;;;;;;2.42;2.22;;;15.60;65.30;;;;;;5054905;28;20052;-11
2023/01/26 07:08:12;;;;;;;2.08;1.98;;;15.60;65.20;;;;;;5057978;28;20143;-11
2023/01/26 07:10:38;;;;;;;1.90;1.80;;;15.60;65.30;;;;;;5041734;28;20424;-11
2023/01/26 07:13:04;;;;;;;1.85;1.75;;;15.70;65.30;;;;;;5042662;28;20048;-11
2023/01/26 07:15:30;;;;;;;4.60;3.60;;;15.60;65.30;;;;;;5044920;28;20045;-11
2023/01/26 07:17:56;;;;;;;5.05;4.28;;;15.70;65.20;;;;;;5040125;28;20090;-11
2023/01/26 07:20:21;;;;;;;4.32;3.92;;;15.70;65.10;;;;;;5042370;28;20044;-19
2023/01/26 07:22:48;;;;;;;3.33;3.13;;;15.70;65.00;;;;;;5040333;28;20080;-11
2023/01/26 07:25:14;;;;;;;3.10;2.90;;;15.70;65.30;;;;;;5044302;28;20515;-11
2023/01/26 07:27:40;;;;;;;3.63;3.30;;;15.80;65.90;;;;;;5040515;28;20052;-11
2023/01/26 07:30:06;;;;;;;3.42;3.13;;;15.70;65.10;;;;;;5044855;28;20902;-11
2023/01/26 07:32:32;;;;;;;4.18;3.63;;;15.80;65.10;;;;;;5041005;28;20053;-11
2023/01/26 07:34:57;;;;;;;3.63;3.33;;;15.90;64.80;;;;;;5040905;28;20079;-12
2023/01/26 07:37:26;;;;;;;3.03;2.75;;;15.80;64.70;;;;;;5051117;28;20082;-12
2023/01/26 07:39:52;;;;;;;4.90;3.17;;;15.70;65.20;;;;;;5050133;28;20056;-11
2023/01/26 07:42:18;;;;;;;3.15;2.95;;;15.70;64.90;;;;;;5042862;28;20417;-12
2023/01/26 07:44:43;;;;;;;3.25;3.05;;;15.80;64.90;;;;;;5045312;28;20041;-13
2023/01/26 07:47:09;;;;;;;3.20;2.85;;;15.90;64.80;;;;;;5056474;28;20118;-11
2023/01/26 07:49:34;;;;;;;2.72;2.50;;;15.90;64.50;;;;;;5057733;28;20048;-11
2023/01/26 07:52:00;;;;;;;3.70;2.63;;;15.80;64.50;;;;;;5044197;28;20044;-12
2023/01/26 07:54:25;;;;;;;2.40;2.20;;;15.80;64.90;;;;;;5051351;28;20064;-12
2023/01/26 07:56:52;;;;;;;2.58;2.38;;;15.80;65.40;;;;;;5043914;28;20124;-16
2023/01/26 07:59:17;;;;;;;2.75;2.45;;;15.70;65.60;;;;;;5061223;28;20047;-11
2023/01/26 08:01:43;;;;;;;3.85;2.80;;;15.60;65.80;;;;;;5057363;28;20041;-12
2023/01/26 08:04:08;;;;;;;3.75;2.38;;;15.70;66.10;;;;;;5066024;28;20071;-12
2023/01/26 08:06:34;;;;;;;2.38;2.17;;;15.80;65.80;;;;;;5059247;28;20160;-12
2023/01/26 08:08:59;;;;;;;3.35;2.28;;;15.70;65.80;;;;;;5056828;28;20069;-12
2023/01/26 08:11:25;;;;;;;2.33;2.13;;;15.60;66.00;;;;;;5065959;28;20491;-12
2023/01/26 08:13:51;;;;;;;2.28;2.03;;;15.70;66.10;;;;;;5057812;28;20129;-11
2023/01/26 08:16:17;;;;;;;3.13;2.38;;;15.80;66.00;;;;;;5047507;28;20049;-12
2023/01/26 08:18:43;;;;;;;3.70;2.53;;;15.80;65.70;;;;;;5044581;28;20063;-11
2023/01/26 08:21:10;;;;;;;2.42;2.28;;;15.90;65.30;;;;;;5039167;28;20503;-12
2023/01/26 08:23:35;;;;;;;2.65;1.80;;;15.90;65.80;;;;;;5036541;28;20437;-12
2023/01/26 08:26:02;;;;;;;2.40;2.22;;;15.80;66.30;;;;;;5064983;28;20052;-23
2023/01/26 08:28:28;;;;;;;3.88;2.22;;;15.80;66.20;;;;;;5063316;28;20569;-12
2023/01/26 08:30:54;;;;;;;3.30;2.25;;;15.70;66.80;;;;;;5045614;28;20037;-12
2023/01/26 08:33:20;;;;;;;2.42;2.20;;;15.70;66.30;;;;;;5047787;28;20057;-11
2023/01/26 08:35:46;;;;;;;1.90;1.80;;;15.70;66.60;;;;;;5047126;28;20045;-12
2023/01/26 08:38:11;;;;;;;2.40;2.30;;;15.80;65.90;;;;;;5045179;28;20052;-12
2023/01/26 08:40:37;;;;;;;3.00;2.45;;;15.80;65.90;;;;;;5049500;28;20043;-12
2023/01/26 08:43:03;;;;;;;2.83;2.63;;;15.70;66.50;;;;;;5043017;28;20041;-13
2023/01/26 08:45:28;;;;;;;2.63;2.20;;;15.60;66.90;;;;;;5057385;28;20053;-15
2023/01/26 08:47:54;;;;;;;2.50;2.30;;;15.50;67.30;;;;;;5065066;28;20044;-13
2023/01/26 08:50:20;;;;;;;2.53;2.00;;;15.50;67.30;;;;;;5060055;28;20040;-15
2023/01/26 08:52:45;;;;;;;2.85;2.22;;;15.50;67.30;;;;;;5058348;28;20160;-12
2023/01/26 08:55:11;;;;;;;4.88;2.60;;;15.50;67.30;;;;;;5053122;28;20057;-13
2023/01/26 08:57:36;;;;;;;2.15;2.00;;;15.50;67.50;;;;;;5055331;28;20524;-13
2023/01/26 09:00:03;;;;;;;2.03;1.92;;;15.50;67.50;;;;;;5063642;28;20086;-12
2023/01/26 09:02:28;;;;;;;1.60;1.50;;;15.50;67.40;;;;;;5068144;28;20576;-12
2023/01/26 09:04:54;;;;;;;5.38;1.70;;;15.50;67.30;;;;;;5060458;28;20140;-12
2023/01/26 09:07:19;;;;;;;1.80;1.70;;;15.50;67.30;;;;;;5043511;28;20049;-12
2023/01/26 09:09:45;;;;;;;1.92;1.80;;;15.50;67.20;;;;;;5064893;28;20053;-12
2023/01/26 09:12:11;;;;;;;5.57;1.83;;;15.50;67.10;;;;;;5054766;28;20076;-13
2023/01/26 09:14:36;;;;;;;3.33;1.95;;;15.50;67.30;;;;;;5050843;28;20045;-14
2023/01/26 09:17:02;;;;;;;2.78;2.00;;;15.40;67.30;;;;;;5056787;28;20090;-13
2023/01/26 09:19:27;;;;;;;1.90;1.80;;;15.50;67.10;;;;;;5048489;28;20124;-12
2023/01/26 09:21:53;;;;;;;1.80;1.70;;;15.50;67.00;;;;;;5045550;28;20052;-12
2023/01/26 09:24:22;;;;;;;2.75;1.73;;;15.40;67.20;;;;;;5053700;28;20033;-13
2023/01/26 09:26:47;;;;;;;1.80;1.60;;;15.40;67.10;;;;;;5054350;28;20041;-14
2023/01/26 09:29:14;;;;;;;1.55;1.45;;;15.50;67.00;;;;;;5050274;28;20162;-13
2023/01/26 09:31:39;;;;;;;1.63;1.52;;;15.50;67.70;;;;;;5048150;28;20044;-12
2023/01/26 09:34:05;;;;;;;1.42;1.33;;;15.50;66.90;;;;;;5045432;28;20401;-12
2023/01/26 09:36:32;;;;;;;1.60;1.50;;;15.60;66.70;;;;;;5049879;28;20073;-12
2023/01/26 09:38:57;;;;;;;1.60;1.50;;;15.70;66.20;;;;;;5055649;28;20045;-12
2023/01/26 09:41:39;;;;;;;3.10;1.80;;;15.70;66.10;;;;;;5070256;28;20097;-12
2023/01/26 09:44:08;;;;;;;2.42;1.63;;;15.80;65.70;;;;;;5048716;28;20112;-24
2023/01/26 09:47:21;;;;;;;1.50;1.40;;;15.60;66.20;;;;;;5051606;28;20137;-12
2023/01/26 09:50:07;;;;;;;1.67;1.40;;;15.60;66.50;;;;;;4987079;28;20054;-15
2023/01/26 09:52:57;;;;;;;2.00;1.58;;;15.60;66.50;;;;;;4980633;28;20046;-12
2023/01/26 09:55:23;;;;;;;1.67;1.52;;;15.60;66.60;;;;;;4986211;28;20050;-12
2023/01/26 09:57:59;;;;;;;1.58;1.48;;;15.60;67.30;;;;;;5005567;28;20049;-12
2023/01/26 10:00:27;;;;;;;2.55;1.65;;;15.70;66.30;;;;;;5016458;28;20041;-13
2023/01/26 10:03:07;;;;;;;1.48;1.38;;;15.70;66.20;;;;;;5005456;28;20136;-13
2023/01/26 10:05:41;;;;;;;1.60;1.50;;;15.60;66.40;;;;;;5016198;28;20059;-12
2023/01/26 10:08:17;;;;;;;2.57;1.87;;;15.60;66.20;;;;;;4995710;28;20057;-12
2023/01/26 10:10:58;;;;;;;1.33;1.23;;;15.70;66.00;;;;;;5003004;28;20096;-12
2023/01/26 10:13:24;;;;;;;1.65;1.55;;;15.70;65.90;;;;;;5007233;28;20084;-12
2023/01/26 10:16:00;;;;;;;1.52;1.42;;;15.70;66.30;;;;;;5005316;28;20077;-13
2023/01/26 10:18:34;;;;;;;3.47;1.88;;;15.60;66.20;;;;;;5000318;28;20038;-12
2023/01/26 10:21:01;;;;;;;2.25;1.20;;;15.60;66.60;;;;;;5024746;28;20045;-12
2023/01/26 10:23:33;;;;;;;2.58;1.92;;;15.50;66.80;;;;;;5046774;28;20247;-12
2023/01/26 10:26:18;;;;;;;1.95;1.27;;;15.60;66.80;;;;;;5045989;28;20059;-12
2023/01/26 10:28:45;;;;;;;1.55;1.40;;;15.50;66.70;;;;;;5056633;28;20040;-18
2023/01/26 10:31:15;;;;;;;1.88;1.67;;;15.50;67.00;;;;;;5060766;28;20052;-12
2023/01/26 10:33:53;;;;;;;1.77;1.67;;;15.70;66.50;;;;;;5051260;28;20052;-12
2023/01/26 10:36:19;;;;;;;2.33;1.60;;;15.70;66.50;;;;;;5046258;28;20045;-12
2023/01/26 10:38:45;;;;;;;4.13;1.45;;;15.70;66.20;;;;;;5043787;28;20056;-12
2023/01/26 10:41:13;;;;;;;1.95;1.40;;;15.70;66.10;;;;;;5044645;28;20041;-12
2023/01/26 10:44:01;;;;;;;2.13;1.65;;;15.70;66.40;;;;;;5059927;28;20055;-12
2023/01/26 10:46:37;;;;;;;2.35;1.98;;;15.70;66.80;;;;;;5047921;28;20049;-12
2023/01/26 10:49:18;;;;;;;3.97;1.55;;;15.60;67.10;;;;;;5045870;28;20152;-12
2023/01/26 10:51:46;;;;;;;3.55;1.40;;;15.60;67.30;;;;;;5044190;28;20128;-13
2023/01/26 10:54:20;;;;;;;2.65;1.70;;;15.70;67.30;;;;;;5053864;28;20063;-14
2023/01/26 10:56:50;;;;;;;2.15;1.63;;;15.60;67.70;;;;;;5047577;28;20060;-12
2023/01/26 10:59:27;;;;;;;1.63;1.33;;;15.60;67.70;;;;;;5047467;28;20041;-13
2023/01/26 11:01:55;;;;;;;1.67;1.52;;;15.60;67.80;;;;;;5045087;28;20106;-12
2023/01/26 11:04:21;;;;;;;2.78;1.83;;;15.70;67.60;;;;;;5064656;28;20068;-12
2023/01/26 11:06:46;;;;;;;2.30;1.55;;;15.90;67.50;;;;;;5054046;28;20072;-13
2023/01/26 11:09:26;;;;;;;2.22;1.30;;;15.80;67.80;;;;;;5053522;28;20534;-13
2023/01/26 11:11:59;;;;;;;4.22;1.40;;;15.80;67.80;;;;;;5046184;28;20045;-13
2023/01/26 11:14:25;;;;;;;3.88;1.73;;;15.80;67.80;;;;;;5046565;28;20168;-13
2023/01/26 11:17:00;;;;;;;1.98;1.70;;;15.80;67.90;;;;;;5042382;28;20128;-12
2023/01/26 11:19:37;;;;;;;5.25;4.05;;;16.00;67.90;;;;;;5027735;28;20127;-16
2023/01/26 11:22:08;;;;;;;24.20;13.40;;;15.80;68.30;;;;;;5044025;28;20469;-13
2023/01/26 11:24:41;;;;;;;36.22;19.30;;;15.90;68.30;;;;;;5042773;28;20044;-12
2023/01/26 11:27:19;;;;;;;42.67;24.52;;;15.90;68.00;;;;;;5053969;28;20091;-13
2023/01/26 11:30:12;;;;;;;48.03;26.83;;;16.00;68.20;;;;;;5056873;28;20569;-13
2023/01/26 11:33:15;;;;;;;60.00;31.85;;;15.90;68.40;;;;;;5047530;28;20114;-13
2023/01/26 11:35:47;;;;;;;62.53;29.65;;;15.70;68.70;;;;;;5044399;28;20049;-12
2023/01/26 11:38:24;;;;;;;57.22;31.15;;;15.80;68.80;;;;;;5043538;28;20064;-19
2023/01/26 11:41:07;;;;;;;55.95;28.17;;;15.70;69.00;;;;;;5048444;28;20106;-13
2023/01/26 11:43:41;;;;;;;55.67;28.02;;;15.70;69.00;;;;;;5044376;28;20048;-13
2023/01/26 11:46:25;;;;;;;54.22;28.27;;;15.70;68.90;;;;;;5067273;28;20043;-13
2023/01/26 11:48:54;;;;;;;50.03;26.35;;;15.70;68.70;;;;;;5039469;28;20107;-12
2023/01/26 11:51:28;;;;;;;45.35;24.88;;;15.80;68.50;;;;;;5055171;28;21164;-12
2023/01/26 11:54:29;;;;;;;;;;;15.80;68.40;;;;;;5061233;28;20435;-19
2023/01/26 11:57:09;;;;;;;39.30;22.13;;;15.80;68.50;;;;;;5058787;28;19936;-15
2023/01/26 11:59:35;;;;;;;42.28;22.77;;;15.80;68.60;;;;;;5029179;28;20051;-13
2023/01/26 12:02:29;;;;;;;41.33;22.48;;;16.00;67.80;;;;;;5049101;28;20048;-14
2023/01/26 12:04:59;;;;;;;44.97;23.20;;;15.90;67.70;;;;;;5046923;28;20052;-13
2023/01/26 12:07:49;;;;;;;38.88;21.17;;;15.90;67.70;;;;;;5034037;28;20498;-21
2023/01/26 12:10:16;;;;;;;36.37;20.87;;;15.80;67.90;;;;;;4675817;28;10000203;-14
2023/01/26 12:12:51;;;;;;;36.55;21.23;;;15.90;67.90;;;;;;5041534;28;20074;-14
2023/01/26 12:15:23;;;;;;;34.92;20.17;;;15.80;68.10;;;;;;5014701;28;20056;-12
2023/01/26 12:18:14;;;;;;;37.17;21.13;;;15.90;68.00;;;;;;5021270;28;20044;-13
2023/01/26 12:20:46;;;;;;;40.15;20.58;;;15.80;68.10;;;;;;5042423;28;20050;-12
2023/01/26 12:23:20;;;;;;;35.58;19.83;;;16.00;68.10;;;;;;5050407;28;20029;-12
2023/01/26 12:26:01;;;;;;;39.90;18.98;;;16.10;68.10;;;;;;5041337;28;20478;-13
2023/01/26 12:28:50;;;;;;;34.40;19.08;;;15.90;69.10;;;;;;5056507;28;20672;-15
2023/01/26 12:31:34;;;;;;;32.65;19.15;;;16.10;68.70;;;;;;5047780;28;20610;-14
2023/01/26 12:34:00;;;;;;;33.60;19.17;;;15.90;69.60;;;;;;5048116;28;20059;-13
2023/01/26 12:36:36;;;;;;;31.67;19.15;;;15.90;69.70;;;;;;5051146;28;20049;-13
2023/01/26 12:39:14;;;;;;;36.42;19.58;;;16.00;69.50;;;;;;5033297;28;20098;-12
2023/01/26 12:41:40;;;;;;;33.17;18.17;;;15.90;69.60;;;;;;5059611;28;20674;-13
2023/01/26 12:44:25;;;;;;;29.50;17.60;;;15.80;70.00;;;;;;5053640;28;20131;-13
2023/01/26 12:46:55;;;;;;;;;;;15.80;70.10;;;;;;5079381;28;20123;-12
2023/01/26 12:49:28;;;;;;;26.85;15.52;;;15.80;69.80;;;;;;5037778;28;20023;-13
2023/01/26 12:52:04;;;;;;;26.33;17.05;;;15.80;69.60;;;;;;5054146;28;20037;-14
2023/01/26 12:54:39;;;;;;;31.05;16.88;;;15.90;69.30;;;;;;5061744;28;20040;-13
2023/01/26 12:57:06;;;;;;;29.98;16.67;;;15.90;69.20;;;;;;5056645;28;20056;-13
2023/01/26 12:59:33;;;;;;;26.95;16.17;;;15.80;69.20;;;;;;5065141;28;20040;-12
2023/01/26 13:02:18;;;;;;;27.67;16.95;;;16.00;68.90;;;;;;5049327;28;20162;-13
2023/01/26 13:04:44;;;;;;;25.25;15.93;;;15.90;68.90;;;;;;5050304;28;20039;-24
2023/01/26 13:07:30;;;;;;;25.52;15.45;;;15.90;69.10;;;;;;5045011;28;20415;-13
2023/01/26 13:10:13;;;;;;;24.75;14.85;;;15.90;68.80;;;;;;5045127;28;20082;-13
2023/01/26 13:13:17;;;;;;;27.23;15.48;;;15.90;68.40;;;;;;5043228;28;20130;-13
2023/01/26 13:15:43;;;;;;;26.27;15.45;;;15.90;68.50;;;;;;5037795;28;20052;-13
2023/01/26 13:18:11;;;;;;;22.73;14.63;;;15.80;68.70;;;;;;5056975;28;20048;-13
2023/01/26 13:20:41;;;;;;;22.38;14.15;;;15.80;68.70;;;;;;5044466;28;20057;-16
2023/01/26 13:23:39;;;;;;;19.98;13.45;;;15.90;68.30;;;;;;5063827;28;20036;-13
2023/01/26 13:26:13;;;;;;;23.58;13.65;;;15.90;68.20;;;;;;5066342;28;20032;-13
2023/01/26 13:28:39;;;;;;;22.92;14.38;;;15.90;68.10;;;;;;5063997;28;20146;-12
2023/01/26 13:31:05;;;;;;;20.73;13.55;;;15.80;68.20;;;;;;5051577;28;20032;-13
2023/01/26 13:33:31;;;;;;;20.48;13.43;;;15.80;68.20;;;;;;5042984;28;20049;-12
2023/01/26 13:35:56;;;;;;;21.95;13.63;;;15.90;68.00;;;;;;5042450;28;20503;-14
2023/01/26 13:38:32;;;;;;;18.60;13.15;;;15.90;67.90;;;;;;5045080;28;20094;-12
2023/01/26 13:40:58;;;;;;;20.33;13.25;;;15.80;68.00;;;;;;5059734;28;20112;-18